Latest Weather Observations for Melville Water

IDW60901

Issued at 11:55 pm WST Wednesday 16 April 2014 (issued every 10 minutes, with the page automatically refreshed every 10 minutes)

About weather observations | Map of Perth area stations | Latest observations for Perth area | Other Formats
Station Details ID: 009091 Name: INNER DOLPHIN PYLON Lat: -31.99 Lon: 115.83 Height: 0.0 m
Data from the previous 72 hours. | See also: Recent months for locations in Western Australia
Date/Time
WST
Tmp

°C
App
Tmp
°C
Dew
Point
°C
Rel
Hum
%
Delta-T

°C
Wind Press
QNH
hPa
Press
MSL
hPa
Rain
since
9 am
mm
Dir
 
Spd
km/h
Gust
km/h
Spd
kts
Gust
kts
16/11:30pm - - - - - S 13 19 7 10 - - -
16/11:00pm - - - - - S 15 19 8 10 - - -
16/10:30pm - - - - - S 17 22 9 12 - - -
16/10:00pm - - - - - S 19 22 10 12 - - -
16/09:30pm - - - - - S 19 26 10 14 - - -
16/09:00pm - - - - - S 19 24 10 13 - - -
16/08:30pm - - - - - S 19 24 10 13 - - -
16/08:00pm - - - - - S 17 22 9 12 - - -
16/07:30pm - - - - - S 13 17 7 9 - - -
16/07:00pm - - - - - SSW 19 22 10 12 - - -
16/06:30pm - - - - - SSW 20 24 11 13 - - -
16/06:00pm - - - - - SSW 19 24 10 13 - - -
16/05:30pm - - - - - SW 24 28 13 15 - - -
16/05:00pm - - - - - SSW 24 28 13 15 - - -
16/04:30pm - - - - - SW 22 26 12 14 - - -
16/04:00pm - - - - - SSW 24 30 13 16 - - -
16/03:30pm - - - - - SW 22 28 12 15 - - -
16/03:00pm - - - - - SW 22 26 12 14 - - -
16/02:30pm - - - - - SW 19 24 10 13 - - -
16/02:00pm - - - - - WSW 20 26 11 14 - - -
16/01:30pm - - - - - WSW 19 22 10 12 - - -
16/01:00pm - - - - - WSW 17 20 9 11 - - -
16/12:30pm - - - - - SW 7 9 4 5 - - -
16/12:00pm - - - - - WSW 6 7 3 4 - - -
16/11:30am - - - - - SW 4 7 2 4 - - -
16/11:00am - - - - - W 4 7 2 4 - - -
16/10:30am - - - - - SE 2 4 1 2 - - -
16/10:00am - - - - - E 4 6 2 3 - - -
16/09:30am - - - - - ENE 13 17 7 9 - - -
16/09:00am - - - - - E 13 19 7 10 - - -
16/08:30am - - - - - S 4 11 2 6 - - -
16/08:00am - - - - - ESE 9 11 5 6 - - -
16/07:30am - - - - - E 13 19 7 10 - - -
16/07:00am - - - - - E 11 13 6 7 - - -
16/06:30am - - - - - SE 11 15 6 8 - - -
16/06:00am - - - - - SSE 7 11 4 6 - - -
16/05:30am - - - - - S 9 11 5 6 - - -
16/05:00am - - - - - S 15 19 8 10 - - -
16/04:30am - - - - - S 17 20 9 11 - - -
16/04:00am - - - - - SSW 13 17 7 9 - - -
16/03:30am - - - - - SSW 13 19 7 10 - - -
16/03:00am - - - - - S 11 15 6 8 - - -
16/02:30am - - - - - S 15 19 8 10 - - -
16/02:00am - - - - - S 20 24 11 13 - - -
16/01:30am - - - - - S 17 20 9 11 - - -
16/01:00am - - - - - S 17 22 9 12 - - -
16/12:30am - - - - - S 15 19 8 10 - - -
16/12:00am - - - - - SSW 9 13 5 7 - - -
 
Date/Time
WST
Tmp

°C
App
Tmp
°C
Dew
Point
°C
Rel
Hum
%
Delta-T

°C
Wind Press
QNH
hPa
Press
MSL
hPa
Rain
since
9 am
mm
Dir
 
Spd
km/h
Gust
km/h
Spd
kts
Gust
kts
15/11:30pm - - - - - SSE 7 11 4 6 - - -
15/11:00pm - - - - - SSE 6 9 3 5 - - -
15/10:30pm - - - - - S 6 7 3 4 - - -
15/10:00pm - - - - - S 6 9 3 5 - - -
15/09:30pm - - - - - SSW 9 11 5 6 - - -
15/09:00pm - - - - - SW 11 13 6 7 - - -
15/08:30pm - - - - - WSW 11 13 6 7 - - -
15/08:00pm - - - - - SW 13 17 7 9 - - -
15/07:30pm - - - - - SW 17 20 9 11 - - -
15/07:00pm - - - - - SW 13 19 7 10 - - -
15/06:30pm - - - - - SSW 17 22 9 12 - - -
15/06:00pm - - - - - SW 15 20 8 11 - - -
15/05:30pm - - - - - SW 17 22 9 12 - - -
15/05:00pm - - - - - SSW 22 28 12 15 - - -
15/04:30pm - - - - - SW 22 30 12 16 - - -
15/04:00pm - - - - - SW 20 26 11 14 - - -
15/03:30pm - - - - - SW 19 22 10 12 - - -
15/03:00pm - - - - - SW 17 22 9 12 - - -
15/02:30pm - - - - - WSW 19 24 10 13 - - -
15/02:00pm - - - - - WSW 19 24 10 13 - - -
15/01:30pm - - - - - WSW 20 24 11 13 - - -
15/01:00pm - - - - - SW 20 24 11 13 - - -
15/12:30pm - - - - - SW 26 32 14 17 - - -
15/12:00pm - - - - - WSW 20 28 11 15 - - -
15/11:30am - - - - - SW 20 26 11 14 - - -
15/11:00am - - - - - WSW 17 24 9 13 - - -
15/10:30am - - - - - WSW 15 22 8 12 - - -
15/10:00am - - - - - SW 7 11 4 6 - - -
15/09:30am - - - - - SW 9 11 5 6 - - -
15/09:00am - - - - - WSW 2 6 1 3 - - -
15/08:30am - - - - - NE 6 9 3 5 - - -
15/08:00am - - - - - NE 6 11 3 6 - - -
15/07:30am - - - - - NW 4 11 2 6 - - -
15/07:00am - - - - - ENE 7 9 4 5 - - -
15/06:30am - - - - - ENE 4 6 2 3 - - -
15/06:00am - - - - - SE 2 4 1 2 - - -
15/05:30am - - - - - SSE 2 4 1 2 - - -
15/05:00am - - - - - S 6 7 3 4 - - -
15/04:30am - - - - - WSW 4 7 2 4 - - -
15/04:00am - - - - - W 4 7 2 4 - - -
15/03:30am - - - - - W 4 4 2 2 - - -
15/03:00am - - - - - W 4 6 2 3 - - -
15/02:30am - - - - - W 4 4 2 2 - - -
15/02:00am - - - - - W 4 6 2 3 - - -
15/01:30am - - - - - SW 4 7 2 4 - - -
15/01:00am - - - - - W 4 6 2 3 - - -
15/12:30am - - - - - WSW 4 6 2 3 - - -
15/12:00am - - - - - W 4 4 2 2 - - -
 
Date/Time
WST
Tmp

°C
App
Tmp
°C
Dew
Point
°C
Rel
Hum
%
Delta-T

°C
Wind Press
QNH
hPa
Press
MSL
hPa
Rain
since
9 am
mm
Dir
 
Spd
km/h
Gust
km/h
Spd
kts
Gust
kts
14/11:30pm - - - - - W 4 6 2 3 - - -
14/11:00pm - - - - - W 6 6 3 3 - - -
14/10:30pm - - - - - SW 4 6 2 3 - - -
14/10:00pm - - - - - SSW 7 11 4 6 - - -
14/09:30pm - - - - - SSW 9 13 5 7 - - -
14/09:00pm - - - - - SSW 9 11 5 6 - - -
14/08:30pm - - - - - SSW 13 17 7 9 - - -
14/08:00pm - - - - - SW 13 17 7 9 - - -
14/07:30pm - - - - - SSW 13 19 7 10 - - -
14/07:00pm - - - - - SW 11 13 6 7 - - -
14/06:30pm - - - - - WSW 13 17 7 9 - - -
14/06:00pm - - - - - WSW 13 15 7 8 - - -
14/05:30pm - - - - - W 11 15 6 8 - - -
14/05:00pm - - - - - WSW 11 17 6 9 - - -
14/04:30pm - - - - - WSW 11 15 6 8 - - -
14/04:00pm - - - - - WSW 11 15 6 8 - - -
14/03:30pm - - - - - WSW 11 15 6 8 - - -
14/03:00pm - - - - - WSW 13 17 7 9 - - -
14/02:30pm - - - - - WSW 13 19 7 10 - - -
14/02:00pm - - - - - WSW 15 19 8 10 - - -
14/01:30pm - - - - - WSW 17 20 9 11 - - -
14/01:00pm - - - - - WSW 17 20 9 11 - - -
14/12:30pm - - - - - WSW 17 20 9 11 - - -
14/12:00pm - - - - - W 17 20 9 11 - - -
14/11:30am - - - - - W 13 19 7 10 - - -
14/11:00am - - - - - W 2 9 1 5 - - -
14/10:30am - - - - - WNW 4 11 2 6 - - -
14/10:00am - - - - - NNW 6 13 3 7 - - -
14/09:30am - - - - - N 13 17 7 9 - - -
14/09:00am - - - - - NNE 9 13 5 7 - - -
14/08:30am - - - - - ENE 6 7 3 4 - - -
14/08:00am - - - - - ENE 11 13 6 7 - - -
14/07:30am - - - - - ENE 9 13 5 7 - - -
14/07:00am - - - - - ENE 11 15 6 8 - - -
14/06:30am - - - - - NE 11 13 6 7 - - -
14/06:00am - - - - - NE 9 13 5 7 - - -
14/05:30am - - - - - N 7 15 4 8 - - -
14/05:00am - - - - - N 6 9 3 5 - - -
14/04:30am - - - - - NE 15 19 8 10 - - -
14/04:00am - - - - - NE 6 9 3 5 - - -
14/03:30am - - - - - N 4 6 2 3 - - -
14/03:00am - - - - - NNW 6 6 3 3 - - -
14/02:30am - - - - - WNW 4 4 2 2 - - -
14/02:00am - - - - - NNW 4 6 2 3 - - -
14/01:30am - - - - - NW 4 4 2 2 - - -
14/01:00am - - - - - NNW 4 6 2 3 - - -
14/12:30am - - - - - NW 4 4 2 2 - - -
14/12:00am - - - - - WSW 4 6 2 3 - - -

Latest Capital City Observations: Canberra | Sydney | Melbourne | Brisbane | Adelaide | Perth | Hobart | Darwin

Other Formats:

Comma delimited format used in spreadsheet applications
http://www.bom.gov.au/fwo/IDW60901/IDW60901.95620.axf

JavaScript Object Notation format (JSON) in row-major order
http://www.bom.gov.au/fwo/IDW60901/IDW60901.95620.json